Aviation Digital Data Service (ADDS)

Output produced by TAFs form (0214 UTC 27 May 2016)
found at http://www.aviationweather.gov/adds/tafs/
 
KMDT 262349Z 2700/2724 23004KT P6SM FEW070 BKN120 OVC250 
     FM270300 VRB03KT P6SM BKN060 
     FM270700 VRB02KT 5SM BR SCT060